Time;durP1;ratioP1;P1;durP2;ratioP2;P2;SDS_P1;SDS_P2;PMS_P1;PMS_P2;Temp;Humidity;BMP_temperature;BMP_pressure;BME280_temperature;BME280_humidity;BME280_pressure;Samples;Min_cycle;Max_cycle;Signal;HPM_P1;HPM_P2
2023/08/05 00:01:59;;;;;;;128.07;12.52;;;;;;;;;;5033344;28;20636;-57
2023/08/05 00:04:24;;;;;;;90.82;9.15;;;;;;;;;;5035935;28;20064;-57
2023/08/05 00:06:50;;;;;;;154.55;13.98;;;;;;;;;;5034061;28;20287;-55
2023/08/05 00:09:15;;;;;;;80.93;9.80;;;;;;;;;;5039128;28;20028;-56
2023/08/05 00:11:40;;;;;;;94.07;11.07;;;;;;;;;;5035733;28;20658;-56
2023/08/05 00:14:05;;;;;;;73.97;9.70;;;;;;;;;;5034168;28;20067;-55
2023/08/05 00:16:31;;;;;;;75.77;9.87;;;;;;;;;;5035781;28;20279;-56
2023/08/05 00:18:56;;;;;;;180.53;17.10;;;;;;;;;;5033749;28;20642;-56
2023/08/05 00:21:21;;;;;;;94.13;11.43;;;;;;;;;;5035962;28;20292;-55
2023/08/05 00:23:46;;;;;;;88.37;11.00;;;;;;;;;;5035111;28;20283;-55
2023/08/05 00:26:12;;;;;;;97.35;12.32;;;;;;;;;;5035908;28;20349;-56
2023/08/05 00:28:37;;;;;;;84.32;11.15;;;;;;;;;;5036906;28;20053;-55
2023/08/05 00:31:06;;;;;;;137.80;15.32;;;;;;;;;;5041992;28;20484;-56
2023/08/05 00:33:32;;;;;;;115.75;13.27;;;;;;;;;;5055669;28;20028;-57
2023/08/05 00:35:57;;;;;;;157.10;16.40;;;;;;;;;;5046800;28;20037;-57
2023/08/05 00:38:22;;;;;;;83.97;11.83;;;;;;;;;;5037286;28;20620;-57
2023/08/05 00:40:47;;;;;;;127.73;13.90;;;;;;;;;;5034224;28;20430;-56
2023/08/05 00:43:13;;;;;;;90.85;12.07;;;;;;;;;;5034420;28;20381;-56
2023/08/05 00:45:38;;;;;;;81.83;11.67;;;;;;;;;;5036697;28;20033;-56
2023/08/05 00:48:03;;;;;;;158.38;16.38;;;;;;;;;;5034172;28;20415;-59
2023/08/05 00:50:29;;;;;;;71.72;11.07;;;;;;;;;;5036158;28;20145;-56
2023/08/05 00:52:54;;;;;;;162.85;16.65;;;;;;;;;;5034373;28;20024;-57
2023/08/05 00:55:20;;;;;;;100.47;13.07;;;;;;;;;;5035347;28;20459;-56
2023/08/05 00:57:45;;;;;;;99.03;12.40;;;;;;;;;;5019330;28;20078;-57
2023/08/05 01:00:10;;;;;;;88.05;12.20;;;;;;;;;;5034688;28;20082;-56
2023/08/05 01:02:36;;;;;;;99.18;12.02;;;;;;;;;;5035755;28;20360;-57
2023/08/05 01:05:01;;;;;;;146.85;15.60;;;;;;;;;;5034512;28;20432;-56
2023/08/05 01:07:27;;;;;;;95.40;12.02;;;;;;;;;;5035254;28;20128;-58
2023/08/05 01:09:52;;;;;;;143.15;14.70;;;;;;;;;;5033795;28;20113;-58
2023/08/05 01:12:17;;;;;;;86.93;12.43;;;;;;;;;;5036276;28;20115;-57
2023/08/05 01:14:42;;;;;;;117.87;13.43;;;;;;;;;;5035402;28;20021;-57
2023/08/05 01:17:08;;;;;;;88.60;12.23;;;;;;;;;;5034404;28;20542;-57
2023/08/05 01:19:33;;;;;;;58.05;10.48;;;;;;;;;;5036628;28;20676;-57
2023/08/05 01:22:17;;;;;;;146.75;15.77;;;;;;;;;;5034203;28;20115;-56
2023/08/05 01:24:48;;;;;;;78.43;11.52;;;;;;;;;;5018520;28;20036;-56
2023/08/05 01:27:13;;;;;;;100.13;12.87;;;;;;;;;;5033337;28;20037;-56
2023/08/05 01:29:38;;;;;;;77.97;11.10;;;;;;;;;;5037005;28;20027;-56
2023/08/05 01:32:05;;;;;;;143.02;15.68;;;;;;;;;;5034137;28;20587;-56
2023/08/05 01:34:31;;;;;;;110.15;12.88;;;;;;;;;;5035748;28;20067;-56
2023/08/05 01:36:56;;;;;;;162.60;16.35;;;;;;;;;;5034213;28;20041;-56
2023/08/05 01:39:21;;;;;;;89.10;11.67;;;;;;;;;;5036999;28;20021;-56
2023/08/05 01:41:47;;;;;;;107.13;12.53;;;;;;;;;;5035616;28;20283;-57
2023/08/05 01:44:12;;;;;;;76.40;11.75;;;;;;;;;;5017999;28;20630;-56
2023/08/05 01:46:37;;;;;;;80.63;12.00;;;;;;;;;;5035150;28;20025;-57
2023/08/05 01:49:02;;;;;;;170.37;17.27;;;;;;;;;;5033098;28;20318;-56
2023/08/05 01:51:27;;;;;;;73.67;11.70;;;;;;;;;;5035607;28;20310;-56
2023/08/05 01:53:53;;;;;;;101.10;13.00;;;;;;;;;;5033503;28;20378;-55
2023/08/05 01:56:18;;;;;;;108.07;13.23;;;;;;;;;;5034731;28;20820;-56
2023/08/05 01:58:43;;;;;;;89.75;12.63;;;;;;;;;;5035934;28;20281;-55
2023/08/05 02:01:08;;;;;;;146.00;15.73;;;;;;;;;;5033616;28;20094;-56
2023/08/05 02:03:34;;;;;;;78.63;11.57;;;;;;;;;;5035152;28;20318;-56
2023/08/05 02:05:59;;;;;;;150.13;15.97;;;;;;;;;;5031811;28;20408;-56
2023/08/05 02:08:24;;;;;;;74.80;9.80;;;;;;;;;;5035493;28;20016;-57
2023/08/05 02:10:49;;;;;;;88.67;11.60;;;;;;;;;;5017299;28;20355;-57
2023/08/05 02:13:15;;;;;;;92.45;11.45;;;;;;;;;;5034074;28;20278;-55
2023/08/05 02:15:40;;;;;;;108.40;12.77;;;;;;;;;;5034126;28;20037;-57
2023/08/05 02:18:06;;;;;;;122.63;14.20;;;;;;;;;;5033232;28;20510;-56
2023/08/05 02:20:31;;;;;;;90.70;12.40;;;;;;;;;;5034124;28;20276;-56
2023/08/05 02:22:56;;;;;;;122.23;14.70;;;;;;;;;;5033552;28;20581;-57
2023/08/05 02:25:21;;;;;;;83.43;11.43;;;;;;;;;;5034072;28;20020;-56
2023/08/05 02:27:46;;;;;;;84.63;11.37;;;;;;;;;;5033999;28;20263;-55
2023/08/05 02:30:12;;;;;;;166.07;16.67;;;;;;;;;;5015793;28;20271;-57
2023/08/05 02:32:37;;;;;;;87.40;11.87;;;;;;;;;;5035733;28;20267;-57
2023/08/05 02:35:03;;;;;;;138.48;15.57;;;;;;;;;;5033240;28;20656;-55
2023/08/05 02:37:28;;;;;;;92.97;11.48;;;;;;;;;;5034958;28;20032;-56
2023/08/05 02:39:53;;;;;;;82.80;11.67;;;;;;;;;;5035673;28;20039;-55
2023/08/05 02:42:18;;;;;;;84.53;12.50;;;;;;;;;;5032266;28;20383;-56
2023/08/05 02:44:43;;;;;;;112.33;12.67;;;;;;;;;;5034563;28;20386;-55
2023/08/05 02:47:09;;;;;;;153.93;17.17;;;;;;;;;;5033344;28;20366;-55
2023/08/05 02:49:34;;;;;;;85.80;12.37;;;;;;;;;;5034873;28;20259;-55
2023/08/05 02:51:59;;;;;;;175.95;17.52;;;;;;;;;;5032686;28;20319;-56
2023/08/05 02:54:25;;;;;;;79.15;11.88;;;;;;;;;;5034967;28;20573;-54
2023/08/05 02:56:50;;;;;;;83.75;12.30;;;;;;;;;;5034107;28;20040;-56
2023/08/05 02:59:16;;;;;;;100.10;12.20;;;;;;;;;;5033356;28;20052;-55
2023/08/05 03:01:41;;;;;;;102.63;13.30;;;;;;;;;;5033541;28;20060;-56
2023/08/05 03:04:06;;;;;;;149.80;16.67;;;;;;;;;;5032718;28;20051;-56
2023/08/05 03:06:31;;;;;;;109.18;13.55;;;;;;;;;;5032764;28;20041;-56
2023/08/05 03:08:57;;;;;;;84.53;11.80;;;;;;;;;;5033910;28;20032;-55
2023/08/05 03:11:22;;;;;;;77.88;12.50;;;;;;;;;;5034185;28;20064;-57
2023/08/05 03:13:47;;;;;;;122.60;13.57;;;;;;;;;;5034025;28;20055;-57
2023/08/05 03:16:13;;;;;;;151.87;16.37;;;;;;;;;;5033772;28;20305;-57
2023/08/05 03:18:38;;;;;;;81.47;11.45;;;;;;;;;;5017724;28;20394;-56
2023/08/05 03:21:04;;;;;;;131.75;13.98;;;;;;;;;;5033674;28;20037;-56
2023/08/05 03:23:29;;;;;;;83.28;12.38;;;;;;;;;;5037929;28;20040;-57
2023/08/05 03:25:54;;;;;;;109.60;13.30;;;;;;;;;;5038801;28;20025;-56
2023/08/05 03:28:19;;;;;;;82.40;12.07;;;;;;;;;;5038226;28;20262;-57
2023/08/05 03:30:45;;;;;;;88.13;11.75;;;;;;;;;;5038746;28;20268;-56
2023/08/05 03:33:10;;;;;;;161.50;16.30;;;;;;;;;;5037127;28;20678;-56
2023/08/05 03:35:35;;;;;;;85.27;10.97;;;;;;;;;;5038647;28;20140;-57
2023/08/05 03:38:01;;;;;;;97.95;12.02;;;;;;;;;;5022992;28;20834;-57
2023/08/05 03:40:27;;;;;;;81.30;10.98;;;;;;;;;;5037562;28;20539;-57
2023/08/05 03:42:52;;;;;;;101.47;12.38;;;;;;;;;;5038653;28;20136;-55
2023/08/05 03:45:17;;;;;;;87.77;11.57;;;;;;;;;;5036417;28;20021;-55
2023/08/05 03:47:42;;;;;;;115.15;13.45;;;;;;;;;;5037321;28;20756;-56
2023/08/05 03:50:08;;;;;;;139.38;15.32;;;;;;;;;;5035577;28;20761;-56
2023/08/05 03:52:33;;;;;;;91.40;12.20;;;;;;;;;;5037493;28;20300;-55
2023/08/05 03:54:59;;;;;;;95.93;12.02;;;;;;;;;;5035893;28;20021;-55
2023/08/05 03:57:24;;;;;;;85.70;11.80;;;;;;;;;;5036690;28;20036;-56
2023/08/05 03:59:49;;;;;;;103.78;12.90;;;;;;;;;;5037631;28;20021;-56
2023/08/05 04:02:15;;;;;;;151.45;16.42;;;;;;;;;;5022734;28;20052;-56
2023/08/05 04:04:42;;;;;;;88.32;12.30;;;;;;;;;;5037040;28;20127;-56
2023/08/05 04:07:08;;;;;;;132.75;14.05;;;;;;;;;;5035532;28;20523;-55
2023/08/05 04:09:35;;;;;;;104.93;12.40;;;;;;;;;;5036798;28;20025;-56
2023/08/05 04:12:03;;;;;;;86.50;11.90;;;;;;;;;;5034211;28;20036;-56
2023/08/05 04:14:29;;;;;;;82.68;12.48;;;;;;;;;;5036620;28;20029;-55
2023/08/05 04:16:55;;;;;;;126.75;13.70;;;;;;;;;;5036804;28;20033;-56
2023/08/05 04:19:22;;;;;;;82.45;12.20;;;;;;;;;;5036596;28;20029;-55
2023/08/05 04:21:47;;;;;;;94.57;12.95;;;;;;;;;;5037053;28;20051;-56
2023/08/05 04:24:18;;;;;;;146.80;15.65;;;;;;;;;;5034841;28;20029;-55
2023/08/05 04:26:43;;;;;;;85.18;12.68;;;;;;;;;;5037178;28;20039;-55
2023/08/05 04:29:10;;;;;;;121.00;14.27;;;;;;;;;;5034753;28;20433;-55
2023/08/05 04:31:37;;;;;;;91.80;12.40;;;;;;;;;;5036541;28;20043;-56
2023/08/05 04:34:02;;;;;;;86.63;12.90;;;;;;;;;;5033652;28;20025;-56
2023/08/05 04:36:27;;;;;;;76.93;11.70;;;;;;;;;;5035827;28;20043;-56
2023/08/05 04:38:53;;;;;;;99.67;12.07;;;;;;;;;;5037028;28;20037;-55
2023/08/05 04:41:18;;;;;;;132.80;15.43;;;;;;;;;;5034247;28;20290;-55
2023/08/05 04:43:43;;;;;;;103.03;12.73;;;;;;;;;;5036722;28;20029;-57
2023/08/05 04:46:11;;;;;;;101.33;13.23;;;;;;;;;;5035779;28;20275;-56
2023/08/05 04:48:36;;;;;;;66.93;10.52;;;;;;;;;;5037158;28;20294;-55
2023/08/05 04:51:01;;;;;;;96.73;12.43;;;;;;;;;;5003748;28;20817;-56
2023/08/05 04:53:26;;;;;;;88.22;12.23;;;;;;;;;;5036236;28;20271;-56
2023/08/05 04:55:52;;;;;;;117.93;14.20;;;;;;;;;;5035729;28;20511;-57
2023/08/05 04:58:17;;;;;;;159.60;16.97;;;;;;;;;;5034354;28;20623;-56
2023/08/05 05:00:42;;;;;;;73.75;10.48;;;;;;;;;;5034367;28;20276;-56
2023/08/05 05:03:07;;;;;;;148.80;14.20;;;;;;;;;;5035288;28;20029;-57
2023/08/05 05:05:34;;;;;;;85.45;12.15;;;;;;;;;;5035797;28;20038;-56
2023/08/05 05:08:00;;;;;;;64.07;10.98;;;;;;;;;;5037253;28;20021;-57
2023/08/05 05:10:25;;;;;;;72.53;11.20;;;;;;;;;;5034330;28;20033;-56
2023/08/05 05:12:50;;;;;;;107.10;12.63;;;;;;;;;;5036111;28;20055;-55
2023/08/05 05:15:15;;;;;;;110.13;13.87;;;;;;;;;;5034135;28;20033;-55
2023/08/05 05:17:41;;;;;;;74.57;12.43;;;;;;;;;;5037530;28;20287;-57
2023/08/05 05:20:06;;;;;;;122.73;15.00;;;;;;;;;;5033001;28;20366;-56
2023/08/05 05:22:32;;;;;;;72.25;11.73;;;;;;;;;;5036699;28;20274;-56
2023/08/05 05:24:58;;;;;;;66.28;11.48;;;;;;;;;;5035860;28;20025;-56
2023/08/05 05:27:23;;;;;;;142.38;15.68;;;;;;;;;;5034714;28;20124;-57
2023/08/05 05:29:48;;;;;;;86.85;12.63;;;;;;;;;;5036087;28;20453;-55
2023/08/05 05:32:13;;;;;;;132.57;15.73;;;;;;;;;;5021104;28;20082;-56
2023/08/05 05:34:39;;;;;;;81.03;11.87;;;;;;;;;;5035100;28;20349;-55
2023/08/05 05:37:04;;;;;;;67.80;11.23;;;;;;;;;;5035484;28;20283;-56
2023/08/05 05:39:29;;;;;;;70.85;11.02;;;;;;;;;;5035277;28;20025;-56
2023/08/05 05:41:57;;;;;;;97.32;12.80;;;;;;;;;;5035059;28;20056;-56
2023/08/05 05:44:23;;;;;;;99.68;12.85;;;;;;;;;;5033853;28;20095;-56
2023/08/05 05:46:48;;;;;;;93.53;12.43;;;;;;;;;;5033907;28;20403;-56
2023/08/05 05:49:15;;;;;;;118.43;14.20;;;;;;;;;;5034533;28;20526;-58
2023/08/05 05:51:42;;;;;;;55.42;11.13;;;;;;;;;;5021570;28;20275;-56
2023/08/05 05:54:07;;;;;;;85.82;11.77;;;;;;;;;;5032694;28;20179;-57
2023/08/05 05:56:32;;;;;;;60.42;10.60;;;;;;;;;;5036044;28;20127;-56
2023/08/05 05:58:58;;;;;;;76.20;11.30;;;;;;;;;;5035251;28;20035;-56
2023/08/05 06:01:24;;;;;;;149.55;16.55;;;;;;;;;;5033333;28;20039;-57
2023/08/05 06:03:50;;;;;;;79.57;12.18;;;;;;;;;;5034144;28;20032;-56
2023/08/05 06:06:16;;;;;;;123.80;15.07;;;;;;;;;;5032890;28;20301;-56
2023/08/05 06:08:42;;;;;;;80.55;11.55;;;;;;;;;;5034584;28;20219;-57
2023/08/05 06:11:07;;;;;;;61.42;10.40;;;;;;;;;;5033473;28;20556;-55
2023/08/05 06:13:32;;;;;;;78.60;10.68;;;;;;;;;;5035318;28;20033;-57
2023/08/05 06:15:58;;;;;;;105.50;12.67;;;;;;;;;;5034240;28;20048;-55
2023/08/05 06:18:23;;;;;;;124.60;13.57;;;;;;;;;;5017811;28;20490;-55
2023/08/05 06:20:48;;;;;;;63.95;9.77;;;;;;;;;;5034096;28;20051;-56
2023/08/05 06:23:14;;;;;;;138.70;13.70;;;;;;;;;;5033306;28;20029;-56
2023/08/05 06:25:39;;;;;;;52.05;9.05;;;;;;;;;;5035628;28;20037;-56
2023/08/05 06:28:04;;;;;;;61.17;9.67;;;;;;;;;;5034716;28;20028;-58
2023/08/05 06:30:30;;;;;;;75.28;9.73;;;;;;;;;;5032787;28;20686;-57
2023/08/05 06:32:55;;;;;;;72.70;9.03;;;;;;;;;;5035073;28;20029;-56
2023/08/05 06:35:21;;;;;;;126.13;13.07;;;;;;;;;;5033771;28;20267;-57
2023/08/05 06:37:46;;;;;;;82.03;9.48;;;;;;;;;;5035303;28;20799;-56
2023/08/05 06:40:11;;;;;;;82.53;9.27;;;;;;;;;;5035021;28;20311;-56
2023/08/05 06:42:37;;;;;;;72.07;9.00;;;;;;;;;;5035209;28;20036;-57
2023/08/05 06:45:02;;;;;;;82.30;9.60;;;;;;;;;;5034975;28;20029;-57
2023/08/05 06:47:31;;;;;;;113.82;11.27;;;;;;;;;;5032808;28;20543;-57
2023/08/05 06:49:56;;;;;;;74.03;8.73;;;;;;;;;;5035257;28;20068;-57
2023/08/05 06:52:22;;;;;;;134.60;19.15;;;;;;;;;;5034228;28;20033;-55
2023/08/05 06:54:47;;;;;;;87.20;24.20;;;;;;;;;;5035671;28;20025;-57
2023/08/05 06:57:12;;;;;;;103.53;11.00;;;;;;;;;;5036820;28;20043;-56
2023/08/05 06:59:38;;;;;;;53.85;8.70;;;;;;;;;;5040536;28;20037;-58
2023/08/05 07:02:03;;;;;;;52.20;6.63;;;;;;;;;;5038466;28;20113;-56
2023/08/05 07:04:28;;;;;;;113.57;10.57;;;;;;;;;;5038287;28;20283;-58
2023/08/05 07:06:54;;;;;;;68.00;7.78;;;;;;;;;;5039286;28;20040;-55
2023/08/05 07:09:19;;;;;;;109.88;11.10;;;;;;;;;;5020570;28;20725;-55
2023/08/05 07:11:45;;;;;;;74.75;8.40;;;;;;;;;;5038387;28;20033;-57
2023/08/05 07:14:10;;;;;;;68.63;23.45;;;;;;;;;;5038784;28;20479;-55
2023/08/05 07:16:35;;;;;;;50.55;15.52;;;;;;;;;;5038427;28;20048;-55
2023/08/05 07:19:01;;;;;;;80.40;22.30;;;;;;;;;;5038601;28;20082;-57
2023/08/05 07:21:26;;;;;;;147.43;39.72;;;;;;;;;;5036142;28;20090;-57
2023/08/05 07:23:51;;;;;;;66.15;7.97;;;;;;;;;;5037804;28;20123;-56
2023/08/05 07:26:17;;;;;;;136.63;24.80;;;;;;;;;;5036396;28;20499;-57
2023/08/05 07:28:43;;;;;;;48.73;6.93;;;;;;;;;;5038387;28;20071;-56
2023/08/05 07:31:10;;;;;;;116.28;70.70;;;;;;;;;;5038040;28;20752;-57
2023/08/05 07:33:35;;;;;;;77.72;8.18;;;;;;;;;;5035850;28;20037;-57
2023/08/05 07:36:07;;;;;;;188.07;146.90;;;;;;;;;;5037471;28;20111;-58
2023/08/05 07:38:35;;;;;;;53.45;6.80;;;;;;;;;;5034708;28;20025;-57
2023/08/05 07:41:00;;;;;;;79.60;8.15;;;;;;;;;;5038061;28;20130;-56
2023/08/05 07:43:29;;;;;;;117.55;10.63;;;;;;;;;;5017866;28;20441;-55
2023/08/05 07:45:56;;;;;;;90.00;10.77;;;;;;;;;;5036541;28;20164;-57
2023/08/05 07:48:22;;;;;;;124.28;11.07;;;;;;;;;;5035941;28;20079;-56
2023/08/05 07:50:47;;;;;;;58.55;6.60;;;;;;;;;;5037266;28;20123;-58
2023/08/05 07:53:13;;;;;;;87.18;8.32;;;;;;;;;;5037317;28;20308;-56
2023/08/05 07:55:41;;;;;;;61.78;7.07;;;;;;;;;;5037177;28;20036;-56
2023/08/05 07:58:07;;;;;;;67.80;31.27;;;;;;;;;;5037203;28;20016;-57
2023/08/05 08:00:33;;;;;;;73.30;7.63;;;;;;;;;;5033573;28;21432;-57
2023/08/05 08:02:58;;;;;;;217.80;195.80;;;;;;;;;;5037300;28;20123;-57
2023/08/05 08:05:24;;;;;;;128.02;44.03;;;;;;;;;;5023544;28;20033;-57
2023/08/05 08:07:50;;;;;;;102.07;31.33;;;;;;;;;;5036618;28;20479;-57
2023/08/05 08:10:16;;;;;;;59.28;6.38;;;;;;;;;;5036421;28;20017;-57
2023/08/05 08:12:41;;;;;;;88.72;33.88;;;;;;;;;;5037354;28;20039;-56
2023/08/05 08:15:07;;;;;;;122.30;42.60;;;;;;;;;;5037090;28;20028;-55
2023/08/05 08:17:32;;;;;;;118.90;11.40;;;;;;;;;;5034154;28;20554;-56
2023/08/05 08:19:57;;;;;;;60.65;8.15;;;;;;;;;;5037092;28;20025;-57
2023/08/05 08:22:23;;;;;;;131.85;21.83;;;;;;;;;;5035442;28;20033;-57
2023/08/05 08:24:48;;;;;;;66.05;23.10;;;;;;;;;;5037814;28;20492;-56
2023/08/05 08:27:13;;;;;;;143.30;96.13;;;;;;;;;;5038563;28;20029;-56
2023/08/05 08:29:38;;;;;;;142.17;91.70;;;;;;;;;;5037087;28;20020;-55
2023/08/05 08:32:04;;;;;;;192.63;154.97;;;;;;;;;;5038083;28;20048;-57
2023/08/05 08:34:29;;;;;;;213.75;124.05;;;;;;;;;;5037143;28;20263;-57
2023/08/05 08:36:54;;;;;;;123.93;39.00;;;;;;;;;;5036388;28;20021;-56
2023/08/05 08:39:19;;;;;;;160.55;85.43;;;;;;;;;;5036442;28;20025;-56
2023/08/05 08:41:45;;;;;;;358.37;321.27;;;;;;;;;;5036860;28;20033;-56
2023/08/05 08:44:11;;;;;;;214.02;190.80;;;;;;;;;;5036802;28;20380;-55
2023/08/05 08:46:37;;;;;;;383.45;346.05;;;;;;;;;;5035683;28;20041;-55
2023/08/05 08:49:02;;;;;;;145.65;86.32;;;;;;;;;;5038366;28;20647;-55
2023/08/05 08:51:28;;;;;;;422.40;380.52;;;;;;;;;;5035171;28;20029;-55
2023/08/05 08:53:54;;;;;;;168.38;91.60;;;;;;;;;;5037063;28;20025;-55
2023/08/05 08:56:19;;;;;;;258.55;182.77;;;;;;;;;;5035694;28;20067;-55
2023/08/05 08:58:44;;;;;;;301.90;269.95;;;;;;;;;;5038046;28;20020;-55
2023/08/05 09:01:10;;;;;;;170.47;117.07;;;;;;;;;;5035592;28;20040;-55
2023/08/05 09:03:36;;;;;;;351.10;292.25;;;;;;;;;;5035202;28;20025;-55
2023/08/05 09:06:02;;;;;;;262.25;207.18;;;;;;;;;;5035799;28;20109;-55
2023/08/05 09:08:28;;;;;;;229.88;142.75;;;;;;;;;;5034179;28;20387;-55
2023/08/05 09:10:53;;;;;;;81.15;11.05;;;;;;;;;;5035614;28;20029;-55
2023/08/05 09:13:20;;;;;;;175.23;123.00;;;;;;;;;;5035684;28;20108;-55
2023/08/05 09:15:46;;;;;;;300.95;270.17;;;;;;;;;;5036391;28;20307;-54
2023/08/05 09:18:11;;;;;;;106.88;59.70;;;;;;;;;;5035484;28;20600;-55
2023/08/05 09:20:37;;;;;;;155.57;55.37;;;;;;;;;;5034654;28;20393;-55
2023/08/05 09:23:03;;;;;;;146.40;95.53;;;;;;;;;;5035467;28;20728;-55
2023/08/05 09:25:29;;;;;;;437.95;390.40;;;;;;;;;;5034039;28;21626;-56
2023/08/05 09:27:56;;;;;;;218.82;195.85;;;;;;;;;;5035637;28;20017;-55
2023/08/05 09:30:21;;;;;;;265.27;217.35;;;;;;;;;;5034372;28;20037;-54
2023/08/05 09:32:47;;;;;;;214.02;148.40;;;;;;;;;;5036271;28;20055;-56
2023/08/05 09:35:13;;;;;;;328.60;288.38;;;;;;;;;;5033128;28;20270;-55
2023/08/05 09:37:39;;;;;;;379.02;338.20;;;;;;;;;;5033105;28;20044;-55
2023/08/05 09:40:14;;;;;;;262.55;164.95;;;;;;;;;;5035441;28;20087;-55
2023/08/05 09:42:40;;;;;;;383.73;346.73;;;;;;;;;;5034190;28;20108;-56
2023/08/05 09:45:09;;;;;;;273.20;211.30;;;;;;;;;;5035201;28;20141;-56
2023/08/05 09:47:34;;;;;;;342.20;286.38;;;;;;;;;;5034129;28;20067;-56
2023/08/05 09:50:03;;;;;;;282.70;252.10;;;;;;;;;;5035483;28;20399;-56
2023/08/05 09:52:29;;;;;;;458.42;409.88;;;;;;;;;;5032392;28;20379;-56
2023/08/05 09:54:59;;;;;;;292.67;236.63;;;;;;;;;;5033136;28;20070;-56
2023/08/05 09:57:25;;;;;;;347.33;273.17;;;;;;;;;;5032530;28;20061;-56
2023/08/05 09:59:53;;;;;;;423.50;380.48;;;;;;;;;;5034833;28;20063;-56
2023/08/05 10:02:20;;;;;;;458.40;416.13;;;;;;;;;;5034686;28;20086;-55
2023/08/05 10:04:46;;;;;;;380.35;339.20;;;;;;;;;;5031796;28;20029;-56
2023/08/05 10:07:11;;;;;;;373.45;336.75;;;;;;;;;;5017123;28;20804;-56
2023/08/05 10:09:37;;;;;;;426.45;380.77;;;;;;;;;;5033899;28;20029;-56
2023/08/05 10:12:04;;;;;;;501.10;453.83;;;;;;;;;;5034217;28;20136;-56
2023/08/05 10:14:29;;;;;;;266.60;228.32;;;;;;;;;;5031858;28;20024;-53
2023/08/05 10:16:55;;;;;;;420.33;374.50;;;;;;;;;;5033071;28;20044;-54
2023/08/05 10:19:27;;;;;;;339.05;305.23;;;;;;;;;;5035370;28;20033;-56
2023/08/05 10:22:05;;;;;;;395.17;359.42;;;;;;;;;;5035139;28;20462;-56
2023/08/05 10:24:48;;;;;;;409.55;367.45;;;;;;;;;;5033682;28;20032;-56
2023/08/05 10:27:14;;;;;;;383.30;349.40;;;;;;;;;;5034811;28;20029;-54
2023/08/05 10:29:50;;;;;;;366.73;327.33;;;;;;;;;;5033127;28;20131;-56
2023/08/05 10:32:16;;;;;;;445.88;406.27;;;;;;;;;;5039033;28;20369;-55
2023/08/05 10:34:41;;;;;;;411.73;362.40;;;;;;;;;;5036565;28;20511;-55
2023/08/05 10:37:06;;;;;;;405.17;368.67;;;;;;;;;;5037902;28;20294;-55
2023/08/05 10:39:39;;;;;;;326.05;270.10;;;;;;;;;;5036732;28;20465;-56
2023/08/05 10:42:23;;;;;;;418.75;379.08;;;;;;;;;;5039424;28;20041;-55
2023/08/05 10:44:49;;;;;;;365.30;331.20;;;;;;;;;;5039111;28;20159;-56
2023/08/05 10:47:18;;;;;;;355.15;318.75;;;;;;;;;;5038474;28;20601;-55
2023/08/05 10:49:44;;;;;;;371.73;337.63;;;;;;;;;;5034593;28;20028;-55
2023/08/05 10:52:19;;;;;;;413.30;374.33;;;;;;;;;;5038470;28;20110;-57
2023/08/05 10:54:46;;;;;;;429.23;384.50;;;;;;;;;;5036166;28;20267;-56
2023/08/05 10:57:30;;;;;;;346.75;315.48;;;;;;;;;;5037685;28;20453;-57
2023/08/05 11:00:03;;;;;;;409.73;371.13;;;;;;;;;;5038972;28;20216;-56
2023/08/05 11:02:28;;;;;;;422.15;379.38;;;;;;;;;;5036716;28;20399;-56
2023/08/05 11:05:06;;;;;;;482.00;433.85;;;;;;;;;;5037529;28;20119;-55
2023/08/05 11:07:32;;;;;;;350.63;270.27;;;;;;;;;;5019511;28;20458;-57
2023/08/05 11:09:57;;;;;;;513.58;464.75;;;;;;;;;;5038470;28;20027;-56
2023/08/05 11:12:24;;;;;;;384.60;348.43;;;;;;;;;;5037796;28;20037;-56
2023/08/05 11:14:49;;;;;;;541.53;486.85;;;;;;;;;;5034740;28;20020;-57
2023/08/05 11:17:14;;;;;;;441.93;395.40;;;;;;;;;;5036871;28;20451;-57
2023/08/05 11:19:49;;;;;;;410.98;303.42;;;;;;;;;;5036202;28;20263;-55
2023/08/05 11:22:20;;;;;;;363.88;329.00;;;;;;;;;;5037564;28;20440;-57
2023/08/05 11:24:46;;;;;;;99.95;21.75;;;;;;;;;;5035898;28;20459;-56
2023/08/05 11:27:12;;;;;;;330.80;299.47;;;;;;;;;;5038276;28;20179;-56
2023/08/05 11:29:39;;;;;;;414.58;353.73;;;;;;;;;;5035961;28;20811;-56
2023/08/05 11:32:04;;;;;;;143.30;107.38;;;;;;;;;;5038689;28;20040;-56
2023/08/05 11:34:29;;;;;;;285.27;217.73;;;;;;;;;;5035384;28;20101;-56
2023/08/05 11:36:55;;;;;;;399.50;358.93;;;;;;;;;;5037282;28;20033;-55
2023/08/05 11:39:24;;;;;;;386.70;350.65;;;;;;;;;;5038331;28;20013;-56
2023/08/05 11:41:49;;;;;;;139.45;66.45;;;;;;;;;;5035620;28;20033;-57
2023/08/05 11:44:18;;;;;;;291.73;260.25;;;;;;;;;;5037007;28;20304;-56
2023/08/05 11:46:43;;;;;;;339.10;293.10;;;;;;;;;;5033015;28;20477;-56
2023/08/05 11:49:09;;;;;;;135.97;91.73;;;;;;;;;;5036979;28;20025;-56
2023/08/05 11:51:47;;;;;;;369.13;320.20;;;;;;;;;;5036094;28;20552;-55
2023/08/05 11:54:13;;;;;;;447.10;407.55;;;;;;;;;;5037710;28;20032;-56
2023/08/05 11:56:38;;;;;;;449.20;402.97;;;;;;;;;;5036638;28;20100;-56
2023/08/05 11:59:03;;;;;;;426.33;384.10;;;;;;;;;;5038568;28;20286;-56
2023/08/05 12:01:29;;;;;;;395.38;357.95;;;;;;;;;;5018495;28;20040;-56
2023/08/05 12:03:57;;;;;;;464.87;422.03;;;;;;;;;;5038231;28;20051;-56
2023/08/05 12:06:26;;;;;;;367.13;333.00;;;;;;;;;;5037805;28;20116;-56
2023/08/05 12:08:52;;;;;;;434.55;385.10;;;;;;;;;;5036302;28;20029;-56
2023/08/05 12:11:17;;;;;;;436.42;395.52;;;;;;;;;;5037492;28;20033;-56
2023/08/05 12:13:44;;;;;;;523.53;473.80;;;;;;;;;;5035591;28;20031;-55
2023/08/05 12:16:16;;;;;;;417.30;376.55;;;;;;;;;;5036666;28;20061;-56
2023/08/05 12:18:41;;;;;;;;;;;;;;;;;;5035987;28;20032;-57
2023/08/05 12:21:06;;;;;;;272.10;229.95;;;;;;;;;;5036738;28;19916;-56
2023/08/05 12:23:36;;;;;;;174.20;106.33;;;;;;;;;;5018642;28;20029;-57
2023/08/05 12:26:01;;;;;;;222.43;157.38;;;;;;;;;;5036874;28;20495;-55
2023/08/05 12:28:27;;;;;;;375.77;338.90;;;;;;;;;;5019466;28;20043;-58
2023/08/05 12:30:52;;;;;;;349.05;314.65;;;;;;;;;;5034860;28;20546;-56
2023/08/05 12:33:17;;;;;;;345.10;312.47;;;;;;;;;;5037309;28;20059;-56
2023/08/05 12:35:43;;;;;;;327.10;274.93;;;;;;;;;;5032304;28;20072;-57
2023/08/05 12:38:08;;;;;;;471.65;228.35;;;;;;;;;;5030377;28;20707;-57
2023/08/05 12:40:33;;;;;;;460.67;412.23;;;;;;;;;;5014699;28;20029;-57
2023/08/05 12:42:58;;;;;;;326.03;256.73;;;;;;;;;;5033253;28;20029;-57
2023/08/05 12:45:23;;;;;;;427.03;386.33;;;;;;;;;;5033212;28;20036;-58
2023/08/05 12:47:49;;;;;;;410.20;367.17;;;;;;;;;;5031726;28;20033;-59
2023/08/05 12:50:14;;;;;;;381.60;343.40;;;;;;;;;;5033175;28;20025;-58
2023/08/05 12:52:39;;;;;;;532.30;406.97;;;;;;;;;;5031919;28;20028;-57
2023/08/05 12:55:05;;;;;;;350.40;266.97;;;;;;;;;;5033181;28;20020;-58
2023/08/05 12:57:31;;;;;;;333.67;292.52;;;;;;;;;;5032943;28;20604;-55
2023/08/05 12:59:57;;;;;;;356.35;267.73;;;;;;;;;;5033110;28;20400;-55
2023/08/05 13:02:23;;;;;;;348.53;315.70;;;;;;;;;;5032695;28;20045;-57
2023/08/05 13:04:49;;;;;;;367.23;303.90;;;;;;;;;;5031439;28;20298;-57
2023/08/05 13:07:14;;;;;;;223.02;198.98;;;;;;;;;;5032929;28;20040;-56
2023/08/05 13:09:39;;;;;;;156.23;16.83;;;;;;;;;;5032221;28;20025;-57
2023/08/05 13:12:05;;;;;;;402.35;314.67;;;;;;;;;;5033283;28;20143;-57
2023/08/05 13:14:30;;;;;;;496.85;447.95;;;;;;;;;;5032389;28;20120;-58
2023/08/05 13:16:56;;;;;;;240.90;212.40;;;;;;;;;;5030932;28;20111;-57
2023/08/05 13:19:21;;;;;;;282.17;252.13;;;;;;;;;;5033584;28;20534;-57
2023/08/05 13:21:47;;;;;;;459.27;403.13;;;;;;;;;;5030258;28;20068;-55
2023/08/05 13:24:12;;;;;;;352.77;277.48;;;;;;;;;;5014868;28;20025;-58
2023/08/05 13:26:38;;;;;;;308.08;216.25;;;;;;;;;;5029671;28;20558;-55
2023/08/05 13:29:03;;;;;;;477.50;433.00;;;;;;;;;;5034221;28;20036;-55
2023/08/05 13:31:28;;;;;;;430.73;384.97;;;;;;;;;;5025445;28;20032;-54
2023/08/05 13:33:54;;;;;;;303.35;258.48;;;;;;;;;;5031545;28;20306;-55
2023/08/05 13:36:19;;;;;;;313.00;217.02;;;;;;;;;;5031355;28;20684;-55
2023/08/05 13:38:46;;;;;;;258.63;148.68;;;;;;;;;;5031776;28;20449;-55
2023/08/05 13:41:11;;;;;;;265.77;238.27;;;;;;;;;;5032686;28;20067;-56
2023/08/05 13:43:37;;;;;;;375.45;337.60;;;;;;;;;;5032090;28;20868;-57
2023/08/05 13:46:02;;;;;;;380.20;325.00;;;;;;;;;;5033264;28;20521;-57
2023/08/05 13:48:28;;;;;;;273.25;140.32;;;;;;;;;;5034062;28;20667;-57
2023/08/05 13:51:00;;;;;;;352.97;317.57;;;;;;;;;;5015623;28;20068;-56
2023/08/05 13:53:25;;;;;;;285.15;229.90;;;;;;;;;;5032062;28;20271;-57
2023/08/05 13:55:54;;;;;;;530.93;478.70;;;;;;;;;;5029262;28;20037;-58
2023/08/05 13:58:19;;;;;;;293.40;261.77;;;;;;;;;;5034028;28;20037;-58
2023/08/05 14:00:45;;;;;;;374.97;337.17;;;;;;;;;;5032637;28;20244;-57